Kezdőlap
METAR-TAF:

METAR-TAF

Repülőterek :

Cape Romanzof, Alaszka, Amerikai Egyesült Államok

földrajzi szélesség: 61-47N, földrajzi hosszúság: 166-02W, magasság: 139 m

Jelenlegi meteorológiai megfigyelések

A jelentés 18 perccel ezelõtt készült, 02:33 UTC
Északi szél 10 kt széllökések: 22 kt, észak-északnyugati és keleti között változik
Hőmérséklet -6°C
Páratartalom 93%
Légköri nyomás 993 hPa
Látótávolság: 16.1 km
Szórványos felhőzet 1900 lábon
Szakadozott felhőzet 4400 lábon
enyhe hózápor

METAR: PACZ 050233Z AUTO 01010G22KT 340V090 10SM -SHSN SCT019 BKN044 M06/M07 A2933 RMK AO2 SLP942

Idő: 17:51 (02:51 UTC)


TAF: hiányzik

Meteorológiai megfigyelések és előrejelzések több, mint 4000 repülőtéren (METAR és TAF jelentéseket).

A térképen piros és sárga pontok jelzik az elérhető meteorológiai állomásokat.

Mozgassa az egeret a pont fölött, hogy megjelenjen az állomás neve.

Azután kattintson az időjárási megfigyelések és előrejelzések megtekintéséhez.

A térkép megváltoztatása: kattintson a fekete keresztel jelölt zöld gombra ráközelítéshez, a vonallal jelölt zöld gombra távolításhoz, vagy a zöld nyilakra a szomszédos térképek eléréséhez.


METAR-TAF: